sensor_id;sensor_type;location;lat;lon;timestamp;P1;durP1;ratioP1;P2;durP2;ratioP2
14770;SDS011;7477;45.222;5.688;2023-06-14T00:02:01;5.95;;;2.17;;
14770;SDS011;7477;45.222;5.688;2023-06-14T00:05:21;3.05;;;2.15;;
14770;SDS011;7477;45.222;5.688;2023-06-14T00:08:42;5.65;;;1.95;;
14770;SDS011;7477;45.222;5.688;2023-06-14T00:12:01;3.95;;;2.08;;
14770;SDS011;7477;45.222;5.688;2023-06-14T00:15:21;6.63;;;2.10;;
14770;SDS011;7477;45.222;5.688;2023-06-14T00:18:42;3.78;;;1.92;;
14770;SDS011;7477;45.222;5.688;2023-06-14T00:22:01;4.30;;;2.08;;
14770;SDS011;7477;45.222;5.688;2023-06-14T00:25:24;5.40;;;2.03;;
14770;SDS011;7477;45.222;5.688;2023-06-14T00:28:46;8.18;;;2.05;;
14770;SDS011;7477;45.222;5.688;2023-06-14T00:32:06;2.95;;;1.70;;
14770;SDS011;7477;45.222;5.688;2023-06-14T00:35:25;4.85;;;2.25;;
14770;SDS011;7477;45.222;5.688;2023-06-14T00:38:45;6.55;;;1.98;;
14770;SDS011;7477;45.222;5.688;2023-06-14T00:42:04;2.03;;;1.73;;
14770;SDS011;7477;45.222;5.688;2023-06-14T00:45:24;4.95;;;1.98;;
14770;SDS011;7477;45.222;5.688;2023-06-14T00:48:43;2.08;;;1.90;;
14770;SDS011;7477;45.222;5.688;2023-06-14T00:52:04;2.08;;;1.73;;
14770;SDS011;7477;45.222;5.688;2023-06-14T00:55:25;2.40;;;2.15;;
14770;SDS011;7477;45.222;5.688;2023-06-14T00:58:44;4.35;;;1.77;;
14770;SDS011;7477;45.222;5.688;2023-06-14T01:02:03;1.70;;;1.50;;
14770;SDS011;7477;45.222;5.688;2023-06-14T01:05:23;1.98;;;1.60;;
14770;SDS011;7477;45.222;5.688;2023-06-14T01:08:47;5.32;;;2.47;;
14770;SDS011;7477;45.222;5.688;2023-06-14T01:12:20;5.10;;;1.90;;
14770;SDS011;7477;45.222;5.688;2023-06-14T01:15:57;3.50;;;2.05;;
14770;SDS011;7477;45.222;5.688;2023-06-14T01:19:17;2.53;;;1.88;;
14770;SDS011;7477;45.222;5.688;2023-06-14T01:22:42;2.53;;;1.83;;
14770;SDS011;7477;45.222;5.688;2023-06-14T01:26:14;5.90;;;2.10;;
14770;SDS011;7477;45.222;5.688;2023-06-14T01:29:34;2.95;;;1.70;;
14770;SDS011;7477;45.222;5.688;2023-06-14T01:32:55;1.52;;;1.42;;
14770;SDS011;7477;45.222;5.688;2023-06-14T01:36:15;8.50;;;1.50;;
14770;SDS011;7477;45.222;5.688;2023-06-14T01:39:36;2.08;;;1.83;;
14770;SDS011;7477;45.222;5.688;2023-06-14T01:42:56;1.80;;;1.67;;
14770;SDS011;7477;45.222;5.688;2023-06-14T01:46:16;2.75;;;1.80;;
14770;SDS011;7477;45.222;5.688;2023-06-14T01:49:37;2.88;;;1.55;;
14770;SDS011;7477;45.222;5.688;2023-06-14T01:52:57;1.50;;;1.40;;
14770;SDS011;7477;45.222;5.688;2023-06-14T01:56:17;7.20;;;2.10;;
14770;SDS011;7477;45.222;5.688;2023-06-14T01:59:36;1.50;;;1.40;;
14770;SDS011;7477;45.222;5.688;2023-06-14T02:02:55;4.78;;;1.60;;
14770;SDS011;7477;45.222;5.688;2023-06-14T02:06:14;1.63;;;1.52;;
14770;SDS011;7477;45.222;5.688;2023-06-14T02:09:36;5.53;;;1.60;;
14770;SDS011;7477;45.222;5.688;2023-06-14T02:12:56;3.72;;;1.60;;
14770;SDS011;7477;45.222;5.688;2023-06-14T02:16:15;1.77;;;1.45;;
14770;SDS011;7477;45.222;5.688;2023-06-14T02:19:36;4.53;;;1.80;;
14770;SDS011;7477;45.222;5.688;2023-06-14T02:22:55;2.80;;;1.83;;
14770;SDS011;7477;45.222;5.688;2023-06-14T02:26:15;3.58;;;1.70;;
14770;SDS011;7477;45.222;5.688;2023-06-14T02:29:34;3.30;;;1.73;;
14770;SDS011;7477;45.222;5.688;2023-06-14T02:32:53;2.55;;;1.67;;
14770;SDS011;7477;45.222;5.688;2023-06-14T02:36:12;2.53;;;1.52;;
14770;SDS011;7477;45.222;5.688;2023-06-14T02:39:31;7.90;;;2.10;;
14770;SDS011;7477;45.222;5.688;2023-06-14T02:42:51;1.60;;;1.50;;
14770;SDS011;7477;45.222;5.688;2023-06-14T02:46:10;2.33;;;1.88;;
14770;SDS011;7477;45.222;5.688;2023-06-14T02:49:29;10.77;;;1.95;;
14770;SDS011;7477;45.222;5.688;2023-06-14T02:52:49;2.20;;;1.88;;
14770;SDS011;7477;45.222;5.688;2023-06-14T02:56:08;4.70;;;1.77;;
14770;SDS011;7477;45.222;5.688;2023-06-14T02:59:28;2.30;;;1.98;;
14770;SDS011;7477;45.222;5.688;2023-06-14T03:02:47;1.63;;;1.52;;
14770;SDS011;7477;45.222;5.688;2023-06-14T03:06:06;3.58;;;1.70;;
14770;SDS011;7477;45.222;5.688;2023-06-14T03:09:26;4.80;;;1.73;;
14770;SDS011;7477;45.222;5.688;2023-06-14T03:12:46;3.13;;;1.80;;
14770;SDS011;7477;45.222;5.688;2023-06-14T03:16:06;3.45;;;1.90;;
14770;SDS011;7477;45.222;5.688;2023-06-14T03:19:25;2.13;;;1.92;;
14770;SDS011;7477;45.222;5.688;2023-06-14T03:22:44;3.05;;;1.63;;
14770;SDS011;7477;45.222;5.688;2023-06-14T03:26:04;3.80;;;1.92;;
14770;SDS011;7477;45.222;5.688;2023-06-14T03:29:24;4.90;;;2.25;;
14770;SDS011;7477;45.222;5.688;2023-06-14T03:32:43;2.85;;;1.60;;
14770;SDS011;7477;45.222;5.688;2023-06-14T03:36:03;2.65;;;2.13;;
14770;SDS011;7477;45.222;5.688;2023-06-14T03:39:22;5.65;;;2.10;;
14770;SDS011;7477;45.222;5.688;2023-06-14T03:42:41;4.38;;;1.92;;
14770;SDS011;7477;45.222;5.688;2023-06-14T03:46:01;6.00;;;1.98;;
14770;SDS011;7477;45.222;5.688;2023-06-14T03:49:20;3.47;;;2.17;;
14770;SDS011;7477;45.222;5.688;2023-06-14T03:52:39;7.05;;;2.20;;
14770;SDS011;7477;45.222;5.688;2023-06-14T03:56:01;3.05;;;2.38;;
14770;SDS011;7477;45.222;5.688;2023-06-14T03:59:20;2.95;;;2.08;;
14770;SDS011;7477;45.222;5.688;2023-06-14T04:02:40;3.13;;;1.95;;
14770;SDS011;7477;45.222;5.688;2023-06-14T04:05:59;6.03;;;2.13;;
14770;SDS011;7477;45.222;5.688;2023-06-14T04:09:19;3.15;;;2.20;;
14770;SDS011;7477;45.222;5.688;2023-06-14T04:12:38;2.35;;;1.95;;
14770;SDS011;7477;45.222;5.688;2023-06-14T04:15:58;7.40;;;2.17;;
14770;SDS011;7477;45.222;5.688;2023-06-14T04:19:17;4.75;;;2.20;;
14770;SDS011;7477;45.222;5.688;2023-06-14T04:22:36;2.85;;;2.00;;
14770;SDS011;7477;45.222;5.688;2023-06-14T04:25:55;2.17;;;1.90;;
14770;SDS011;7477;45.222;5.688;2023-06-14T04:29:20;2.22;;;1.80;;
14770;SDS011;7477;45.222;5.688;2023-06-14T04:32:39;2.30;;;2.10;;
14770;SDS011;7477;45.222;5.688;2023-06-14T04:36:01;3.15;;;2.05;;
14770;SDS011;7477;45.222;5.688;2023-06-14T04:39:20;3.65;;;2.28;;
14770;SDS011;7477;45.222;5.688;2023-06-14T04:42:39;2.63;;;2.10;;
14770;SDS011;7477;45.222;5.688;2023-06-14T04:45:59;3.28;;;2.42;;
14770;SDS011;7477;45.222;5.688;2023-06-14T04:49:20;3.22;;;2.45;;
14770;SDS011;7477;45.222;5.688;2023-06-14T04:52:42;2.10;;;1.92;;
14770;SDS011;7477;45.222;5.688;2023-06-14T04:56:01;3.30;;;2.30;;
14770;SDS011;7477;45.222;5.688;2023-06-14T04:59:21;4.90;;;2.55;;
14770;SDS011;7477;45.222;5.688;2023-06-14T05:02:41;2.65;;;2.22;;
14770;SDS011;7477;45.222;5.688;2023-06-14T05:06:00;3.40;;;2.30;;
14770;SDS011;7477;45.222;5.688;2023-06-14T05:09:20;4.47;;;2.30;;
14770;SDS011;7477;45.222;5.688;2023-06-14T05:12:39;6.20;;;2.53;;
14770;SDS011;7477;45.222;5.688;2023-06-14T05:15:59;6.65;;;2.95;;
14770;SDS011;7477;45.222;5.688;2023-06-14T05:19:19;5.13;;;2.72;;
14770;SDS011;7477;45.222;5.688;2023-06-14T05:22:39;3.90;;;2.55;;
14770;SDS011;7477;45.222;5.688;2023-06-14T05:25:58;4.82;;;3.03;;
14770;SDS011;7477;45.222;5.688;2023-06-14T05:29:18;3.92;;;2.70;;
14770;SDS011;7477;45.222;5.688;2023-06-14T05:32:37;2.58;;;2.30;;
14770;SDS011;7477;45.222;5.688;2023-06-14T05:35:56;3.58;;;2.13;;
14770;SDS011;7477;45.222;5.688;2023-06-14T05:39:16;4.30;;;2.47;;
14770;SDS011;7477;45.222;5.688;2023-06-14T05:42:35;4.80;;;2.67;;
14770;SDS011;7477;45.222;5.688;2023-06-14T05:45:55;5.95;;;2.17;;
14770;SDS011;7477;45.222;5.688;2023-06-14T05:49:14;4.30;;;2.60;;
14770;SDS011;7477;45.222;5.688;2023-06-14T05:52:33;4.45;;;2.80;;
14770;SDS011;7477;45.222;5.688;2023-06-14T05:55:54;2.70;;;2.50;;
14770;SDS011;7477;45.222;5.688;2023-06-14T05:59:13;6.15;;;2.75;;
14770;SDS011;7477;45.222;5.688;2023-06-14T06:02:32;4.93;;;2.78;;
14770;SDS011;7477;45.222;5.688;2023-06-14T06:05:52;7.70;;;2.67;;
14770;SDS011;7477;45.222;5.688;2023-06-14T06:09:11;4.60;;;2.63;;
14770;SDS011;7477;45.222;5.688;2023-06-14T06:12:31;7.10;;;2.83;;
14770;SDS011;7477;45.222;5.688;2023-06-14T06:15:51;7.82;;;2.80;;
14770;SDS011;7477;45.222;5.688;2023-06-14T06:19:10;3.58;;;2.80;;
14770;SDS011;7477;45.222;5.688;2023-06-14T06:22:29;4.45;;;2.83;;
14770;SDS011;7477;45.222;5.688;2023-06-14T06:25:48;4.43;;;3.45;;
14770;SDS011;7477;45.222;5.688;2023-06-14T06:29:07;4.13;;;2.95;;
14770;SDS011;7477;45.222;5.688;2023-06-14T06:32:26;3.97;;;3.00;;
14770;SDS011;7477;45.222;5.688;2023-06-14T06:35:46;3.38;;;3.08;;
14770;SDS011;7477;45.222;5.688;2023-06-14T06:39:04;4.18;;;3.10;;
14770;SDS011;7477;45.222;5.688;2023-06-14T06:42:28;5.38;;;3.50;;
14770;SDS011;7477;45.222;5.688;2023-06-14T06:45:48;11.07;;;3.80;;
14770;SDS011;7477;45.222;5.688;2023-06-14T06:49:07;3.88;;;3.47;;
14770;SDS011;7477;45.222;5.688;2023-06-14T06:52:27;8.73;;;4.22;;
14770;SDS011;7477;45.222;5.688;2023-06-14T06:55:46;4.85;;;4.28;;
14770;SDS011;7477;45.222;5.688;2023-06-14T06:59:05;4.80;;;4.30;;
14770;SDS011;7477;45.222;5.688;2023-06-14T07:02:25;5.80;;;4.93;;
14770;SDS011;7477;45.222;5.688;2023-06-14T07:05:44;6.35;;;4.57;;
14770;SDS011;7477;45.222;5.688;2023-06-14T07:09:04;5.63;;;4.18;;
14770;SDS011;7477;45.222;5.688;2023-06-14T07:12:26;6.70;;;4.80;;
14770;SDS011;7477;45.222;5.688;2023-06-14T07:15:45;5.43;;;4.93;;
14770;SDS011;7477;45.222;5.688;2023-06-14T07:19:05;5.88;;;5.30;;
14770;SDS011;7477;45.222;5.688;2023-06-14T07:22:24;6.35;;;5.63;;
14770;SDS011;7477;45.222;5.688;2023-06-14T07:25:44;9.45;;;6.25;;
14770;SDS011;7477;45.222;5.688;2023-06-14T07:29:04;7.07;;;6.25;;
14770;SDS011;7477;45.222;5.688;2023-06-14T07:32:23;8.70;;;6.43;;
14770;SDS011;7477;45.222;5.688;2023-06-14T07:35:43;7.03;;;6.10;;
14770;SDS011;7477;45.222;5.688;2023-06-14T07:39:03;8.13;;;6.65;;
14770;SDS011;7477;45.222;5.688;2023-06-14T07:42:24;7.03;;;5.65;;
14770;SDS011;7477;45.222;5.688;2023-06-14T07:45:44;6.50;;;5.50;;
14770;SDS011;7477;45.222;5.688;2023-06-14T07:49:04;5.72;;;5.22;;
14770;SDS011;7477;45.222;5.688;2023-06-14T07:52:24;6.22;;;5.40;;
14770;SDS011;7477;45.222;5.688;2023-06-14T07:55:43;6.47;;;5.72;;
14770;SDS011;7477;45.222;5.688;2023-06-14T07:59:02;6.78;;;5.03;;
14770;SDS011;7477;45.222;5.688;2023-06-14T08:02:21;6.38;;;5.15;;
14770;SDS011;7477;45.222;5.688;2023-06-14T08:05:40;8.73;;;6.22;;
14770;SDS011;7477;45.222;5.688;2023-06-14T08:08:59;13.02;;;5.43;;
14770;SDS011;7477;45.222;5.688;2023-06-14T08:12:19;5.88;;;5.28;;
14770;SDS011;7477;45.222;5.688;2023-06-14T08:15:38;6.85;;;5.35;;
14770;SDS011;7477;45.222;5.688;2023-06-14T08:18:58;6.80;;;4.60;;
14770;SDS011;7477;45.222;5.688;2023-06-14T08:22:17;4.95;;;4.45;;
14770;SDS011;7477;45.222;5.688;2023-06-14T08:25:36;5.53;;;4.75;;
14770;SDS011;7477;45.222;5.688;2023-06-14T08:28:56;4.57;;;3.95;;
14770;SDS011;7477;45.222;5.688;2023-06-14T08:32:15;4.32;;;4.00;;
14770;SDS011;7477;45.222;5.688;2023-06-14T08:35:34;4.38;;;3.97;;
14770;SDS011;7477;45.222;5.688;2023-06-14T08:38:55;6.57;;;3.88;;
14770;SDS011;7477;45.222;5.688;2023-06-14T08:42:14;4.00;;;3.60;;
14770;SDS011;7477;45.222;5.688;2023-06-14T08:45:35;4.50;;;3.33;;
14770;SDS011;7477;45.222;5.688;2023-06-14T08:48:55;3.47;;;3.17;;
14770;SDS011;7477;45.222;5.688;2023-06-14T08:52:18;4.95;;;3.45;;
14770;SDS011;7477;45.222;5.688;2023-06-14T08:55:39;5.13;;;2.92;;
14770;SDS011;7477;45.222;5.688;2023-06-14T08:58:59;3.10;;;2.80;;
14770;SDS011;7477;45.222;5.688;2023-06-14T09:02:22;3.40;;;3.10;;
14770;SDS011;7477;45.222;5.688;2023-06-14T09:05:43;3.22;;;2.92;;
14770;SDS011;7477;45.222;5.688;2023-06-14T09:09:04;2.63;;;2.42;;
14770;SDS011;7477;45.222;5.688;2023-06-14T09:12:23;2.95;;;2.67;;
14770;SDS011;7477;45.222;5.688;2023-06-14T09:15:43;3.03;;;2.83;;
14770;SDS011;7477;45.222;5.688;2023-06-14T09:19:02;2.50;;;2.30;;
14770;SDS011;7477;45.222;5.688;2023-06-14T09:22:21;2.22;;;2.03;;
14770;SDS011;7477;45.222;5.688;2023-06-14T09:25:45;2.60;;;2.40;;
14770;SDS011;7477;45.222;5.688;2023-06-14T09:29:04;3.55;;;3.13;;
14770;SDS011;7477;45.222;5.688;2023-06-14T09:32:24;5.65;;;3.15;;
14770;SDS011;7477;45.222;5.688;2023-06-14T09:35:50;2.53;;;2.33;;
14770;SDS011;7477;45.222;5.688;2023-06-14T09:39:10;2.83;;;2.63;;
14770;SDS011;7477;45.222;5.688;2023-06-14T09:42:35;2.65;;;2.45;;
14770;SDS011;7477;45.222;5.688;2023-06-14T09:45:55;3.33;;;2.80;;
14770;SDS011;7477;45.222;5.688;2023-06-14T09:49:15;3.80;;;2.65;;
14770;SDS011;7477;45.222;5.688;2023-06-14T09:52:34;2.83;;;2.53;;
14770;SDS011;7477;45.222;5.688;2023-06-14T09:55:54;2.72;;;2.53;;
14770;SDS011;7477;45.222;5.688;2023-06-14T09:59:16;5.63;;;3.13;;
14770;SDS011;7477;45.222;5.688;2023-06-14T10:02:44;4.32;;;2.78;;
14770;SDS011;7477;45.222;5.688;2023-06-14T10:06:11;4.20;;;3.00;;
14770;SDS011;7477;45.222;5.688;2023-06-14T10:09:31;3.25;;;2.33;;
14770;SDS011;7477;45.222;5.688;2023-06-14T10:12:51;2.10;;;2.00;;
14770;SDS011;7477;45.222;5.688;2023-06-14T10:16:23;2.50;;;2.30;;
14770;SDS011;7477;45.222;5.688;2023-06-14T10:19:55;3.35;;;2.80;;
14770;SDS011;7477;45.222;5.688;2023-06-14T10:23:22;3.25;;;2.95;;
14770;SDS011;7477;45.222;5.688;2023-06-14T10:26:57;2.40;;;2.15;;
14770;SDS011;7477;45.222;5.688;2023-06-14T10:30:18;4.72;;;2.33;;
14770;SDS011;7477;45.222;5.688;2023-06-14T10:33:55;4.35;;;1.98;;
14770;SDS011;7477;45.222;5.688;2023-06-14T10:37:15;2.90;;;2.70;;
14770;SDS011;7477;45.222;5.688;2023-06-14T10:40:35;4.47;;;2.80;;
14770;SDS011;7477;45.222;5.688;2023-06-14T10:47:35;2.83;;;2.63;;
14770;SDS011;7477;45.222;5.688;2023-06-14T10:51:02;3.47;;;2.72;;
14770;SDS011;7477;45.222;5.688;2023-06-14T10:54:21;4.15;;;2.92;;
14770;SDS011;7477;45.222;5.688;2023-06-14T11:01:04;3.95;;;3.13;;
14770;SDS011;7477;45.222;5.688;2023-06-14T11:04:27;4.18;;;3.38;;
14770;SDS011;7477;45.222;5.688;2023-06-14T11:08:11;3.47;;;3.17;;
14770;SDS011;7477;45.222;5.688;2023-06-14T11:11:43;3.72;;;3.17;;
14770;SDS011;7477;45.222;5.688;2023-06-14T11:15:05;4.68;;;3.70;;
14770;SDS011;7477;45.222;5.688;2023-06-14T11:18:24;4.72;;;3.70;;
14770;SDS011;7477;45.222;5.688;2023-06-14T11:21:46;6.18;;;3.60;;
14770;SDS011;7477;45.222;5.688;2023-06-14T11:25:10;5.05;;;3.65;;
14770;SDS011;7477;45.222;5.688;2023-06-14T11:31:57;4.50;;;3.78;;
14770;SDS011;7477;45.222;5.688;2023-06-14T11:35:16;4.05;;;3.70;;
14770;SDS011;7477;45.222;5.688;2023-06-14T11:38:36;5.05;;;3.60;;
14770;SDS011;7477;45.222;5.688;2023-06-14T11:41:58;3.97;;;3.58;;
14770;SDS011;7477;45.222;5.688;2023-06-14T11:45:19;4.88;;;3.90;;
14770;SDS011;7477;45.222;5.688;2023-06-14T11:48:40;4.78;;;3.63;;
14770;SDS011;7477;45.222;5.688;2023-06-14T11:52:00;3.83;;;3.42;;
14770;SDS011;7477;45.222;5.688;2023-06-14T11:55:19;4.93;;;4.03;;
14770;SDS011;7477;45.222;5.688;2023-06-14T11:58:39;5.65;;;3.72;;
14770;SDS011;7477;45.222;5.688;2023-06-14T12:02:02;4.07;;;3.67;;
14770;SDS011;7477;45.222;5.688;2023-06-14T12:05:22;4.95;;;4.50;;
14770;SDS011;7477;45.222;5.688;2023-06-14T12:08:42;4.15;;;3.75;;
14770;SDS011;7477;45.222;5.688;2023-06-14T12:12:04;3.85;;;3.47;;
14770;SDS011;7477;45.222;5.688;2023-06-14T12:15:24;10.07;;;4.22;;
14770;SDS011;7477;45.222;5.688;2023-06-14T12:18:47;5.10;;;4.32;;
14770;SDS011;7477;45.222;5.688;2023-06-14T12:22:07;5.10;;;3.72;;
14770;SDS011;7477;45.222;5.688;2023-06-14T12:25:32;5.18;;;3.90;;
14770;SDS011;7477;45.222;5.688;2023-06-14T12:28:53;4.40;;;3.90;;
14770;SDS011;7477;45.222;5.688;2023-06-14T12:32:13;5.45;;;4.03;;
14770;SDS011;7477;45.222;5.688;2023-06-14T12:35:32;7.15;;;3.97;;
14770;SDS011;7477;45.222;5.688;2023-06-14T12:38:51;4.88;;;3.90;;
14770;SDS011;7477;45.222;5.688;2023-06-14T12:42:13;4.07;;;3.67;;
14770;SDS011;7477;45.222;5.688;2023-06-14T12:45:33;4.07;;;3.50;;
14770;SDS011;7477;45.222;5.688;2023-06-14T12:48:52;4.55;;;4.15;;
14770;SDS011;7477;45.222;5.688;2023-06-14T12:52:11;4.47;;;3.78;;
14770;SDS011;7477;45.222;5.688;2023-06-14T12:55:31;4.50;;;3.20;;
14770;SDS011;7477;45.222;5.688;2023-06-14T12:58:51;5.40;;;3.88;;
14770;SDS011;7477;45.222;5.688;2023-06-14T13:02:14;5.57;;;3.80;;
14770;SDS011;7477;45.222;5.688;2023-06-14T13:05:35;5.30;;;3.97;;
14770;SDS011;7477;45.222;5.688;2023-06-14T13:08:55;5.70;;;3.92;;
14770;SDS011;7477;45.222;5.688;2023-06-14T13:12:16;6.47;;;4.47;;
14770;SDS011;7477;45.222;5.688;2023-06-14T13:15:35;5.25;;;4.40;;
14770;SDS011;7477;45.222;5.688;2023-06-14T13:18:55;5.63;;;4.50;;
14770;SDS011;7477;45.222;5.688;2023-06-14T13:22:14;5.07;;;3.97;;
14770;SDS011;7477;45.222;5.688;2023-06-14T13:25:34;5.90;;;4.10;;
14770;SDS011;7477;45.222;5.688;2023-06-14T13:28:54;4.45;;;4.03;;
14770;SDS011;7477;45.222;5.688;2023-06-14T13:32:13;5.75;;;4.38;;
14770;SDS011;7477;45.222;5.688;2023-06-14T13:35:33;6.22;;;4.38;;
14770;SDS011;7477;45.222;5.688;2023-06-14T13:38:52;5.80;;;4.28;;
14770;SDS011;7477;45.222;5.688;2023-06-14T13:42:13;5.60;;;3.80;;
14770;SDS011;7477;45.222;5.688;2023-06-14T13:45:32;5.47;;;4.45;;
14770;SDS011;7477;45.222;5.688;2023-06-14T13:48:51;8.57;;;4.20;;
14770;SDS011;7477;45.222;5.688;2023-06-14T13:52:11;5.90;;;4.65;;
14770;SDS011;7477;45.222;5.688;2023-06-14T13:55:32;8.82;;;4.80;;
14770;SDS011;7477;45.222;5.688;2023-06-14T13:58:51;9.25;;;4.78;;
14770;SDS011;7477;45.222;5.688;2023-06-14T14:02:11;6.13;;;5.22;;
14770;SDS011;7477;45.222;5.688;2023-06-14T14:05:30;5.47;;;4.80;;
14770;SDS011;7477;45.222;5.688;2023-06-14T14:08:49;5.88;;;5.10;;
14770;SDS011;7477;45.222;5.688;2023-06-14T14:12:09;6.57;;;4.70;;
14770;SDS011;7477;45.222;5.688;2023-06-14T14:15:28;5.00;;;4.50;;
14770;SDS011;7477;45.222;5.688;2023-06-14T14:18:49;6.13;;;4.80;;
14770;SDS011;7477;45.222;5.688;2023-06-14T14:22:08;5.82;;;4.70;;
14770;SDS011;7477;45.222;5.688;2023-06-14T14:25:27;5.90;;;4.72;;
14770;SDS011;7477;45.222;5.688;2023-06-14T14:28:46;6.90;;;4.45;;
14770;SDS011;7477;45.222;5.688;2023-06-14T14:32:06;6.60;;;4.20;;
14770;SDS011;7477;45.222;5.688;2023-06-14T14:35:26;4.90;;;4.40;;
14770;SDS011;7477;45.222;5.688;2023-06-14T14:38:49;7.50;;;4.47;;
14770;SDS011;7477;45.222;5.688;2023-06-14T14:42:10;6.28;;;4.63;;
14770;SDS011;7477;45.222;5.688;2023-06-14T14:45:30;5.07;;;4.47;;
14770;SDS011;7477;45.222;5.688;2023-06-14T14:48:50;6.20;;;5.13;;
14770;SDS011;7477;45.222;5.688;2023-06-14T14:52:09;5.45;;;4.22;;
14770;SDS011;7477;45.222;5.688;2023-06-14T14:55:29;5.03;;;4.30;;
14770;SDS011;7477;45.222;5.688;2023-06-14T14:58:49;8.48;;;4.40;;
14770;SDS011;7477;45.222;5.688;2023-06-14T15:02:09;4.13;;;3.72;;
14770;SDS011;7477;45.222;5.688;2023-06-14T15:05:29;4.78;;;4.38;;
14770;SDS011;7477;45.222;5.688;2023-06-14T15:08:48;5.10;;;4.60;;
14770;SDS011;7477;45.222;5.688;2023-06-14T15:12:09;5.28;;;4.43;;
14770;SDS011;7477;45.222;5.688;2023-06-14T15:15:29;4.22;;;3.72;;
14770;SDS011;7477;45.222;5.688;2023-06-14T15:18:48;4.68;;;4.13;;
14770;SDS011;7477;45.222;5.688;2023-06-14T15:22:08;5.57;;;4.05;;
14770;SDS011;7477;45.222;5.688;2023-06-14T15:25:27;4.35;;;3.95;;
14770;SDS011;7477;45.222;5.688;2023-06-14T15:28:47;5.45;;;4.28;;
14770;SDS011;7477;45.222;5.688;2023-06-14T15:32:06;5.00;;;3.95;;
14770;SDS011;7477;45.222;5.688;2023-06-14T15:35:26;4.72;;;4.22;;
14770;SDS011;7477;45.222;5.688;2023-06-14T15:38:45;10.00;;;4.15;;
14770;SDS011;7477;45.222;5.688;2023-06-14T15:42:04;5.78;;;4.10;;
14770;SDS011;7477;45.222;5.688;2023-06-14T15:45:24;5.70;;;4.20;;
14770;SDS011;7477;45.222;5.688;2023-06-14T15:48:44;5.18;;;4.68;;
14770;SDS011;7477;45.222;5.688;2023-06-14T15:52:03;5.28;;;4.10;;
14770;SDS011;7477;45.222;5.688;2023-06-14T15:55:23;5.05;;;3.97;;
14770;SDS011;7477;45.222;5.688;2023-06-14T15:58:42;4.53;;;3.97;;
14770;SDS011;7477;45.222;5.688;2023-06-14T16:02:01;6.00;;;4.40;;
14770;SDS011;7477;45.222;5.688;2023-06-14T16:05:20;6.05;;;4.85;;
14770;SDS011;7477;45.222;5.688;2023-06-14T16:08:39;4.18;;;3.60;;
14770;SDS011;7477;45.222;5.688;2023-06-14T16:11:59;4.47;;;4.00;;
14770;SDS011;7477;45.222;5.688;2023-06-14T16:15:19;4.97;;;4.25;;
14770;SDS011;7477;45.222;5.688;2023-06-14T16:18:38;5.13;;;4.60;;
14770;SDS011;7477;45.222;5.688;2023-06-14T16:21:57;6.78;;;3.92;;
14770;SDS011;7477;45.222;5.688;2023-06-14T16:25:16;6.32;;;4.45;;
14770;SDS011;7477;45.222;5.688;2023-06-14T16:28:35;6.15;;;4.15;;
14770;SDS011;7477;45.222;5.688;2023-06-14T16:31:54;5.32;;;3.97;;
14770;SDS011;7477;45.222;5.688;2023-06-14T16:35:14;7.47;;;4.70;;
14770;SDS011;7477;45.222;5.688;2023-06-14T16:38:33;4.93;;;4.05;;
14770;SDS011;7477;45.222;5.688;2023-06-14T16:41:53;4.40;;;4.00;;
14770;SDS011;7477;45.222;5.688;2023-06-14T16:45:12;6.05;;;4.32;;
14770;SDS011;7477;45.222;5.688;2023-06-14T16:48:31;4.82;;;4.00;;
14770;SDS011;7477;45.222;5.688;2023-06-14T16:51:50;4.80;;;3.80;;
14770;SDS011;7477;45.222;5.688;2023-06-14T16:55:09;4.72;;;3.53;;
14770;SDS011;7477;45.222;5.688;2023-06-14T16:58:28;4.07;;;3.67;;
14770;SDS011;7477;45.222;5.688;2023-06-14T17:01:51;8.20;;;3.80;;
14770;SDS011;7477;45.222;5.688;2023-06-14T17:05:11;5.40;;;4.28;;
14770;SDS011;7477;45.222;5.688;2023-06-14T17:08:30;5.28;;;3.53;;
14770;SDS011;7477;45.222;5.688;2023-06-14T17:11:49;4.65;;;3.58;;
14770;SDS011;7477;45.222;5.688;2023-06-14T17:15:08;5.22;;;3.45;;
14770;SDS011;7477;45.222;5.688;2023-06-14T17:18:29;6.05;;;4.15;;
14770;SDS011;7477;45.222;5.688;2023-06-14T17:21:48;3.95;;;3.55;;
14770;SDS011;7477;45.222;5.688;2023-06-14T17:25:10;6.78;;;3.65;;
14770;SDS011;7477;45.222;5.688;2023-06-14T17:28:29;4.60;;;3.90;;
14770;SDS011;7477;45.222;5.688;2023-06-14T17:31:48;4.18;;;3.30;;
14770;SDS011;7477;45.222;5.688;2023-06-14T17:35:08;5.10;;;3.95;;
14770;SDS011;7477;45.222;5.688;2023-06-14T17:38:27;4.93;;;3.65;;
14770;SDS011;7477;45.222;5.688;2023-06-14T17:41:47;3.80;;;3.10;;
14770;SDS011;7477;45.222;5.688;2023-06-14T17:45:06;6.03;;;3.40;;
14770;SDS011;7477;45.222;5.688;2023-06-14T17:48:26;4.43;;;3.58;;
14770;SDS011;7477;45.222;5.688;2023-06-14T17:51:51;3.85;;;3.33;;
14770;SDS011;7477;45.222;5.688;2023-06-14T17:55:11;3.40;;;3.08;;
14770;SDS011;7477;45.222;5.688;2023-06-14T17:58:31;3.55;;;3.25;;
14770;SDS011;7477;45.222;5.688;2023-06-14T18:01:50;5.38;;;3.28;;
14770;SDS011;7477;45.222;5.688;2023-06-14T18:05:09;4.30;;;3.38;;
14770;SDS011;7477;45.222;5.688;2023-06-14T18:08:28;5.00;;;3.78;;
14770;SDS011;7477;45.222;5.688;2023-06-14T18:11:48;4.22;;;3.67;;
14770;SDS011;7477;45.222;5.688;2023-06-14T18:15:07;5.10;;;4.22;;
14770;SDS011;7477;45.222;5.688;2023-06-14T18:18:26;5.13;;;4.40;;
14770;SDS011;7477;45.222;5.688;2023-06-14T18:21:47;5.93;;;3.47;;
14770;SDS011;7477;45.222;5.688;2023-06-14T18:25:06;4.25;;;3.53;;
14770;SDS011;7477;45.222;5.688;2023-06-14T18:28:25;8.52;;;4.03;;
14770;SDS011;7477;45.222;5.688;2023-06-14T18:31:44;4.50;;;3.35;;
14770;SDS011;7477;45.222;5.688;2023-06-14T18:35:04;4.30;;;3.70;;
14770;SDS011;7477;45.222;5.688;2023-06-14T18:38:23;4.70;;;3.42;;
14770;SDS011;7477;45.222;5.688;2023-06-14T18:41:44;5.43;;;3.65;;
14770;SDS011;7477;45.222;5.688;2023-06-14T18:45:04;4.15;;;3.70;;
14770;SDS011;7477;45.222;5.688;2023-06-14T18:48:24;4.35;;;3.65;;
14770;SDS011;7477;45.222;5.688;2023-06-14T18:51:43;4.25;;;3.60;;
14770;SDS011;7477;45.222;5.688;2023-06-14T18:55:02;5.07;;;3.88;;
14770;SDS011;7477;45.222;5.688;2023-06-14T18:58:22;4.35;;;3.47;;
14770;SDS011;7477;45.222;5.688;2023-06-14T19:01:42;6.00;;;3.35;;
14770;SDS011;7477;45.222;5.688;2023-06-14T19:05:01;4.28;;;3.58;;
14770;SDS011;7477;45.222;5.688;2023-06-14T19:08:23;4.85;;;3.67;;
14770;SDS011;7477;45.222;5.688;2023-06-14T19:11:43;4.47;;;3.20;;
14770;SDS011;7477;45.222;5.688;2023-06-14T19:15:05;3.78;;;3.35;;
14770;SDS011;7477;45.222;5.688;2023-06-14T19:18:24;4.93;;;3.38;;
14770;SDS011;7477;45.222;5.688;2023-06-14T19:21:44;4.05;;;3.50;;
14770;SDS011;7477;45.222;5.688;2023-06-14T19:25:04;3.45;;;3.08;;
14770;SDS011;7477;45.222;5.688;2023-06-14T19:28:23;5.45;;;3.53;;
14770;SDS011;7477;45.222;5.688;2023-06-14T19:31:44;4.20;;;3.55;;
14770;SDS011;7477;45.222;5.688;2023-06-14T19:35:03;4.72;;;3.25;;
14770;SDS011;7477;45.222;5.688;2023-06-14T19:38:24;3.95;;;3.28;;
14770;SDS011;7477;45.222;5.688;2023-06-14T19:41:43;5.28;;;4.75;;
14770;SDS011;7477;45.222;5.688;2023-06-14T19:45:02;6.82;;;3.40;;
14770;SDS011;7477;45.222;5.688;2023-06-14T19:48:22;3.78;;;3.47;;
14770;SDS011;7477;45.222;5.688;2023-06-14T19:51:41;3.10;;;2.80;;
14770;SDS011;7477;45.222;5.688;2023-06-14T19:55:01;4.45;;;2.97;;
14770;SDS011;7477;45.222;5.688;2023-06-14T19:58:21;3.70;;;3.30;;
14770;SDS011;7477;45.222;5.688;2023-06-14T20:01:39;5.22;;;2.92;;
14770;SDS011;7477;45.222;5.688;2023-06-14T20:04:59;4.32;;;2.90;;
14770;SDS011;7477;45.222;5.688;2023-06-14T20:08:18;4.72;;;3.40;;
14770;SDS011;7477;45.222;5.688;2023-06-14T20:11:42;4.25;;;3.20;;
14770;SDS011;7477;45.222;5.688;2023-06-14T20:15:01;3.40;;;2.92;;
14770;SDS011;7477;45.222;5.688;2023-06-14T20:18:21;3.40;;;3.08;;
14770;SDS011;7477;45.222;5.688;2023-06-14T20:21:40;3.78;;;2.50;;
14770;SDS011;7477;45.222;5.688;2023-06-14T20:25:00;3.58;;;2.85;;
14770;SDS011;7477;45.222;5.688;2023-06-14T20:28:18;4.68;;;3.20;;
14770;SDS011;7477;45.222;5.688;2023-06-14T20:31:37;3.78;;;3.25;;
14770;SDS011;7477;45.222;5.688;2023-06-14T20:34:56;4.40;;;3.40;;